sensor_id;sensor_type;location;lat;lon;timestamp;pressure;altitude;pressure_sealevel;temperature;humidity
56400;BME280;42298;53.638;9.876;2023-10-31T00:00:07;99274.81;;;12.83;81.38
56400;BME280;42298;53.638;9.876;2023-10-31T00:02:35;99270.28;;;12.91;81.30
56400;BME280;42298;53.638;9.876;2023-10-31T00:05:00;99258.97;;;12.89;81.40
56400;BME280;42298;53.638;9.876;2023-10-31T00:07:26;99254.66;;;12.88;81.27
56400;BME280;42298;53.638;9.876;2023-10-31T00:09:53;99249.94;;;12.83;81.31
56400;BME280;42298;53.638;9.876;2023-10-31T00:12:21;99249.31;;;12.88;81.08
56400;BME280;42298;53.638;9.876;2023-10-31T00:14:46;99251.75;;;12.96;81.34
56400;BME280;42298;53.638;9.876;2023-10-31T00:17:11;99246.59;;;12.94;81.06
56400;BME280;42298;53.638;9.876;2023-10-31T00:19:37;99243.56;;;12.91;81.03
56400;BME280;42298;53.638;9.876;2023-10-31T00:22:03;99245.59;;;12.95;81.53
56400;BME280;42298;53.638;9.876;2023-10-31T00:24:28;99252.53;;;13.03;81.04
56400;BME280;42298;53.638;9.876;2023-10-31T00:26:53;99250.47;;;13.05;81.34
56400;BME280;42298;53.638;9.876;2023-10-31T00:29:19;99247.97;;;13.10;81.29
56400;BME280;42298;53.638;9.876;2023-10-31T00:31:44;99244.66;;;13.15;80.91
56400;BME280;42298;53.638;9.876;2023-10-31T00:34:12;99244.66;;;13.15;81.04
56400;BME280;42298;53.638;9.876;2023-10-31T00:36:38;99245.06;;;13.18;81.07
56400;BME280;42298;53.638;9.876;2023-10-31T00:39:04;99248.94;;;13.22;80.78
56400;BME280;42298;53.638;9.876;2023-10-31T00:41:30;99249.56;;;13.24;80.86
56400;BME280;42298;53.638;9.876;2023-10-31T00:43:56;99229.63;;;13.20;80.63
56400;BME280;42298;53.638;9.876;2023-10-31T00:46:24;99230.06;;;13.17;80.58
56400;BME280;42298;53.638;9.876;2023-10-31T00:48:49;99244.44;;;13.16;80.69
56400;BME280;42298;53.638;9.876;2023-10-31T00:51:17;99233.97;;;13.15;80.82
56400;BME280;42298;53.638;9.876;2023-10-31T00:53:46;99238.28;;;13.16;80.54
56400;BME280;42298;53.638;9.876;2023-10-31T00:56:12;99230.91;;;13.11;80.77
56400;BME280;42298;53.638;9.876;2023-10-31T00:58:38;99222.66;;;13.13;80.64
56400;BME280;42298;53.638;9.876;2023-10-31T01:01:03;99219.41;;;13.11;80.87
56400;BME280;42298;53.638;9.876;2023-10-31T01:03:29;99213.00;;;13.12;80.78
56400;BME280;42298;53.638;9.876;2023-10-31T01:05:56;99214.88;;;13.11;80.82
56400;BME280;42298;53.638;9.876;2023-10-31T01:08:22;99202.53;;;13.10;80.94
56400;BME280;42298;53.638;9.876;2023-10-31T01:10:48;99198.63;;;13.06;80.62
56400;BME280;42298;53.638;9.876;2023-10-31T01:13:16;99214.22;;;13.16;80.77
56400;BME280;42298;53.638;9.876;2023-10-31T01:15:44;99198.22;;;13.09;80.90
56400;BME280;42298;53.638;9.876;2023-10-31T01:18:09;99193.69;;;13.10;81.00
56400;BME280;42298;53.638;9.876;2023-10-31T01:20:36;99199.22;;;13.15;80.87
56400;BME280;42298;53.638;9.876;2023-10-31T01:23:03;99189.16;;;13.10;80.78
56400;BME280;42298;53.638;9.876;2023-10-31T01:25:31;99189.56;;;13.14;80.83
56400;BME280;42298;53.638;9.876;2023-10-31T01:27:56;99188.97;;;13.12;80.88
56400;BME280;42298;53.638;9.876;2023-10-31T01:30:22;99182.00;;;13.11;80.78
56400;BME280;42298;53.638;9.876;2023-10-31T01:32:47;99185.28;;;13.06;80.98
56400;BME280;42298;53.638;9.876;2023-10-31T01:35:12;99196.97;;;13.12;81.00
56400;BME280;42298;53.638;9.876;2023-10-31T01:37:38;99186.50;;;13.10;81.10
56400;BME280;42298;53.638;9.876;2023-10-31T01:40:05;99183.03;;;13.03;81.10
56400;BME280;42298;53.638;9.876;2023-10-31T01:42:33;99189.59;;;13.07;81.08
56400;BME280;42298;53.638;9.876;2023-10-31T01:45:00;99186.72;;;13.09;80.98
56400;BME280;42298;53.638;9.876;2023-10-31T01:47:29;99188.16;;;13.11;81.07
56400;BME280;42298;53.638;9.876;2023-10-31T01:49:54;99170.28;;;13.05;81.03
56400;BME280;42298;53.638;9.876;2023-10-31T01:52:21;99172.31;;;13.10;81.26
56400;BME280;42298;53.638;9.876;2023-10-31T01:54:47;99164.69;;;13.13;80.97
56400;BME280;42298;53.638;9.876;2023-10-31T01:57:14;99160.56;;;13.17;80.94
56400;BME280;42298;53.638;9.876;2023-10-31T01:59:41;99160.31;;;13.19;81.13
56400;BME280;42298;53.638;9.876;2023-10-31T02:02:11;99162.19;;;13.18;80.99
56400;BME280;42298;53.638;9.876;2023-10-31T02:04:39;99153.56;;;13.16;80.94
56400;BME280;42298;53.638;9.876;2023-10-31T02:07:10;99143.91;;;13.15;80.95
56400;BME280;42298;53.638;9.876;2023-10-31T02:09:38;99147.63;;;13.14;81.20
56400;BME280;42298;53.638;9.876;2023-10-31T02:12:04;99134.03;;;13.16;81.22
56400;BME280;42298;53.638;9.876;2023-10-31T02:14:34;99120.88;;;13.14;80.97
56400;BME280;42298;53.638;9.876;2023-10-31T02:16:59;99131.97;;;13.18;81.03
56400;BME280;42298;53.638;9.876;2023-10-31T02:19:25;99127.88;;;13.15;80.89
56400;BME280;42298;53.638;9.876;2023-10-31T02:21:54;99129.09;;;13.13;81.03
56400;BME280;42298;53.638;9.876;2023-10-31T02:24:20;99134.28;;;13.08;80.98
56400;BME280;42298;53.638;9.876;2023-10-31T02:27:07;99125.63;;;13.12;81.17
56400;BME280;42298;53.638;9.876;2023-10-31T02:29:34;99129.94;;;13.13;80.99
56400;BME280;42298;53.638;9.876;2023-10-31T02:32:06;99124.22;;;13.10;81.33
56400;BME280;42298;53.638;9.876;2023-10-31T02:34:33;99115.53;;;13.14;81.46
56400;BME280;42298;53.638;9.876;2023-10-31T02:37:04;99106.25;;;13.17;81.42
56400;BME280;42298;53.638;9.876;2023-10-31T02:39:30;99107.69;;;13.19;81.33
56400;BME280;42298;53.638;9.876;2023-10-31T02:41:56;99108.28;;;13.21;81.45
56400;BME280;42298;53.638;9.876;2023-10-31T02:44:22;99103.16;;;13.20;81.35
56400;BME280;42298;53.638;9.876;2023-10-31T02:46:52;99105.78;;;13.27;81.20
56400;BME280;42298;53.638;9.876;2023-10-31T02:49:22;99102.28;;;13.26;81.21
56400;BME280;42298;53.638;9.876;2023-10-31T02:51:48;99095.09;;;13.27;81.24
56400;BME280;42298;53.638;9.876;2023-10-31T02:54:14;99096.09;;;13.32;81.17
56400;BME280;42298;53.638;9.876;2023-10-31T02:56:41;99089.50;;;13.35;81.27
56400;BME280;42298;53.638;9.876;2023-10-31T02:59:09;99090.09;;;13.37;81.20
56400;BME280;42298;53.638;9.876;2023-10-31T03:01:37;99093.59;;;13.37;81.29
56400;BME280;42298;53.638;9.876;2023-10-31T03:04:03;99091.28;;;13.41;81.17
56400;BME280;42298;53.638;9.876;2023-10-31T03:06:30;99080.81;;;13.39;80.88
56400;BME280;42298;53.638;9.876;2023-10-31T03:08:57;99073.63;;;13.40;81.25
56400;BME280;42298;53.638;9.876;2023-10-31T03:11:25;99071.38;;;13.37;81.09
56400;BME280;42298;53.638;9.876;2023-10-31T03:13:58;99073.63;;;13.40;81.24
56400;BME280;42298;53.638;9.876;2023-10-31T03:16:23;99076.31;;;13.40;81.16
56400;BME280;42298;53.638;9.876;2023-10-31T03:18:48;99073.63;;;13.40;81.17
56400;BME280;42298;53.638;9.876;2023-10-31T03:21:16;99067.22;;;13.41;81.08
56400;BME280;42298;53.638;9.876;2023-10-31T03:23:45;99063.53;;;13.42;81.19
56400;BME280;42298;53.638;9.876;2023-10-31T03:26:12;99064.75;;;13.39;81.09
56400;BME280;42298;53.638;9.876;2023-10-31T03:28:40;99068.88;;;13.42;81.10
56400;BME280;42298;53.638;9.876;2023-10-31T03:31:07;99061.47;;;13.44;80.91
56400;BME280;42298;53.638;9.876;2023-10-31T03:33:36;99070.28;;;13.44;80.98
56400;BME280;42298;53.638;9.876;2023-10-31T03:36:03;99057.59;;;13.40;80.97
56400;BME280;42298;53.638;9.876;2023-10-31T03:38:32;99056.16;;;13.37;81.17
56400;BME280;42298;53.638;9.876;2023-10-31T03:40:58;99062.34;;;13.38;81.19
56400;BME280;42298;53.638;9.876;2023-10-31T03:43:23;99061.56;;;13.31;81.40
56400;BME280;42298;53.638;9.876;2023-10-31T03:45:49;99056.97;;;13.38;81.21
56400;BME280;42298;53.638;9.876;2023-10-31T03:48:16;99053.50;;;13.37;81.45
56400;BME280;42298;53.638;9.876;2023-10-31T03:50:42;99047.09;;;13.38;81.37
56400;BME280;42298;53.638;9.876;2023-10-31T03:53:08;99056.91;;;13.44;81.34
56400;BME280;42298;53.638;9.876;2023-10-31T03:55:36;99051.56;;;13.44;81.28
56400;BME280;42298;53.638;9.876;2023-10-31T03:58:04;99051.63;;;13.38;81.42
56400;BME280;42298;53.638;9.876;2023-10-31T04:00:31;99046.72;;;13.35;81.25
56400;BME280;42298;53.638;9.876;2023-10-31T04:02:58;99045.84;;;13.41;81.16
56400;BME280;42298;53.638;9.876;2023-10-31T04:05:25;99043.22;;;13.34;81.11
56400;BME280;42298;53.638;9.876;2023-10-31T04:07:52;99045.84;;;13.41;81.52
56400;BME280;42298;53.638;9.876;2023-10-31T04:10:18;99044.88;;;13.35;81.28
56400;BME280;42298;53.638;9.876;2023-10-31T04:12:44;99033.19;;;13.30;81.51
56400;BME280;42298;53.638;9.876;2023-10-31T04:15:09;99025.56;;;13.33;81.47
56400;BME280;42298;53.638;9.876;2023-10-31T04:17:37;99030.25;;;13.38;81.60
56400;BME280;42298;53.638;9.876;2023-10-31T04:20:06;99024.50;;;13.34;81.49
56400;BME280;42298;53.638;9.876;2023-10-31T04:22:32;99021.47;;;13.31;81.83
56400;BME280;42298;53.638;9.876;2023-10-31T04:24:57;99019.63;;;13.31;81.94
56400;BME280;42298;53.638;9.876;2023-10-31T04:27:24;99025.97;;;13.30;81.89
56400;BME280;42298;53.638;9.876;2023-10-31T04:29:50;99035.41;;;13.33;81.83
56400;BME280;42298;53.638;9.876;2023-10-31T04:32:16;99027.19;;;13.34;81.80
56400;BME280;42298;53.638;9.876;2023-10-31T04:34:41;99024.53;;;13.28;82.08
56400;BME280;42298;53.638;9.876;2023-10-31T04:37:08;99041.81;;;13.32;82.17
56400;BME280;42298;53.638;9.876;2023-10-31T04:39:39;99038.09;;;13.33;81.89
56400;BME280;42298;53.638;9.876;2023-10-31T04:42:06;99030.06;;;13.33;82.16
56400;BME280;42298;53.638;9.876;2023-10-31T04:44:33;99037.06;;;13.34;82.01
56400;BME280;42298;53.638;9.876;2023-10-31T04:46:58;99025.97;;;13.30;82.22
56400;BME280;42298;53.638;9.876;2023-10-31T04:49:25;99019.38;;;13.33;82.45
56400;BME280;42298;53.638;9.876;2023-10-31T04:51:53;99024.50;;;13.34;81.95
56400;BME280;42298;53.638;9.876;2023-10-31T04:54:22;99022.66;;;13.35;82.14
56400;BME280;42298;53.638;9.876;2023-10-31T04:56:48;99020.22;;;13.33;82.39
56400;BME280;42298;53.638;9.876;2023-10-31T04:59:15;99024.09;;;13.37;82.35
56400;BME280;42298;53.638;9.876;2023-10-31T05:01:48;99019.38;;;13.33;82.41
56400;BME280;42298;53.638;9.876;2023-10-31T05:04:14;99009.38;;;13.21;82.29
56400;BME280;42298;53.638;9.876;2023-10-31T05:06:42;98999.28;;;13.23;82.21
56400;BME280;42298;53.638;9.876;2023-10-31T05:09:07;98991.84;;;13.25;82.41
56400;BME280;42298;53.638;9.876;2023-10-31T05:11:35;98988.78;;;13.29;82.54
56400;BME280;42298;53.638;9.876;2023-10-31T05:14:34;98989.53;;;13.36;82.30
56400;BME280;42298;53.638;9.876;2023-10-31T05:17:02;98991.41;;;13.35;82.58
56400;BME280;42298;53.638;9.876;2023-10-31T05:19:30;98988.72;;;13.35;82.63
56400;BME280;42298;53.638;9.876;2023-10-31T05:21:57;98992.44;;;13.34;82.58
56400;BME280;42298;53.638;9.876;2023-10-31T05:24:23;99001.25;;;13.35;82.31
56400;BME280;42298;53.638;9.876;2023-10-31T05:26:53;98999.44;;;13.35;82.33
56400;BME280;42298;53.638;9.876;2023-10-31T05:29:21;99003.25;;;13.39;82.39
56400;BME280;42298;53.638;9.876;2023-10-31T05:31:48;98996.91;;;13.40;82.30
56400;BME280;42298;53.638;9.876;2023-10-31T05:34:14;99002.25;;;13.40;82.43
56400;BME280;42298;53.638;9.876;2023-10-31T05:36:45;98999.97;;;13.44;82.49
56400;BME280;42298;53.638;9.876;2023-10-31T05:39:12;99003.50;;;13.38;82.21
56400;BME280;42298;53.638;9.876;2023-10-31T05:41:38;98999.97;;;13.44;82.60
56400;BME280;42298;53.638;9.876;2023-10-31T05:44:03;99007.97;;;13.44;82.34
56400;BME280;42298;53.638;9.876;2023-10-31T05:46:30;99002.25;;;13.40;82.28
56400;BME280;42298;53.638;9.876;2023-10-31T05:48:57;99004.84;;;13.47;82.32
56400;BME280;42298;53.638;9.876;2023-10-31T05:51:26;99000.47;;;13.53;82.32
56400;BME280;42298;53.638;9.876;2023-10-31T05:53:51;99003.31;;;13.58;82.57
56400;BME280;42298;53.638;9.876;2023-10-31T05:56:18;98996.69;;;13.60;82.29
56400;BME280;42298;53.638;9.876;2023-10-31T05:58:43;98996.31;;;13.57;82.05
56400;BME280;42298;53.638;9.876;2023-10-31T06:01:32;98999.22;;;13.55;82.05
56400;BME280;42298;53.638;9.876;2023-10-31T06:03:58;98999.66;;;13.52;81.99
56400;BME280;42298;53.638;9.876;2023-10-31T06:06:25;99004.78;;;13.54;82.31
56400;BME280;42298;53.638;9.876;2023-10-31T06:08:51;98997.81;;;13.53;82.07
56400;BME280;42298;53.638;9.876;2023-10-31T06:11:18;99006.19;;;13.56;82.10
56400;BME280;42298;53.638;9.876;2023-10-31T06:13:49;99003.50;;;13.56;82.10
56400;BME280;42298;53.638;9.876;2023-10-31T06:16:15;98999.28;;;13.49;82.00
56400;BME280;42298;53.638;9.876;2023-10-31T06:18:41;98997.22;;;13.51;82.29
56400;BME280;42298;53.638;9.876;2023-10-31T06:21:13;98999.66;;;13.52;82.26
56400;BME280;42298;53.638;9.876;2023-10-31T06:23:39;98998.22;;;13.50;82.01
56400;BME280;42298;53.638;9.876;2023-10-31T06:26:14;98994.91;;;13.54;82.16
56400;BME280;42298;53.638;9.876;2023-10-31T06:28:45;98990.34;;;13.55;82.38
56400;BME280;42298;53.638;9.876;2023-10-31T06:31:12;98996.16;;;13.52;81.93
56400;BME280;42298;53.638;9.876;2023-10-31T06:34:00;98992.81;;;13.56;82.39
56400;BME280;42298;53.638;9.876;2023-10-31T06:36:25;98998.75;;;13.58;82.35
56400;BME280;42298;53.638;9.876;2023-10-31T06:38:54;99002.03;;;13.60;82.22
56400;BME280;42298;53.638;9.876;2023-10-31T06:41:21;98999.34;;;13.60;82.11
56400;BME280;42298;53.638;9.876;2023-10-31T06:43:47;99003.31;;;13.58;81.93
56400;BME280;42298;53.638;9.876;2023-10-31T06:46:14;98999.81;;;13.57;82.04
56400;BME280;42298;53.638;9.876;2023-10-31T06:48:41;99004.56;;;13.55;82.33
56400;BME280;42298;53.638;9.876;2023-10-31T06:51:10;99004.91;;;13.59;81.94
56400;BME280;42298;53.638;9.876;2023-10-31T06:53:37;99005.16;;;13.76;81.92
56400;BME280;42298;53.638;9.876;2023-10-31T06:56:03;99005.75;;;13.78;82.01
56400;BME280;42298;53.638;9.876;2023-10-31T06:58:29;99005.28;;;13.81;81.77
56400;BME280;42298;53.638;9.876;2023-10-31T07:00:54;99001.00;;;13.80;81.95
56400;BME280;42298;53.638;9.876;2023-10-31T07:03:23;99001.44;;;13.77;81.74
56400;BME280;42298;53.638;9.876;2023-10-31T07:05:49;98995.13;;;13.71;81.66
56400;BME280;42298;53.638;9.876;2023-10-31T07:08:15;99008.59;;;13.64;81.69
56400;BME280;42298;53.638;9.876;2023-10-31T07:10:43;99005.91;;;13.64;81.90
56400;BME280;42298;53.638;9.876;2023-10-31T07:13:11;99014.16;;;13.63;81.78
56400;BME280;42298;53.638;9.876;2023-10-31T07:15:37;99012.28;;;13.63;81.85
56400;BME280;42298;53.638;9.876;2023-10-31T07:18:06;99016.00;;;13.62;81.82
56400;BME280;42298;53.638;9.876;2023-10-31T07:20:33;99006.78;;;13.58;81.81
56400;BME280;42298;53.638;9.876;2023-10-31T07:22:59;99007.06;;;13.50;81.79
56400;BME280;42298;53.638;9.876;2023-10-31T07:25:26;99011.19;;;13.53;82.13
56400;BME280;42298;53.638;9.876;2023-10-31T07:27:51;99020.16;;;13.58;82.29
56400;BME280;42298;53.638;9.876;2023-10-31T07:30:17;99014.44;;;13.55;82.25
56400;BME280;42298;53.638;9.876;2023-10-31T07:32:42;99012.00;;;13.53;82.74
56400;BME280;42298;53.638;9.876;2023-10-31T07:35:08;98999.66;;;13.52;82.35
56400;BME280;42298;53.638;9.876;2023-10-31T07:37:33;99021.44;;;13.56;82.24
56400;BME280;42298;53.638;9.876;2023-10-31T07:40:00;99018.59;;;13.51;82.62
56400;BME280;42298;53.638;9.876;2023-10-31T07:42:25;99011.25;;;13.46;82.50
56400;BME280;42298;53.638;9.876;2023-10-31T07:44:51;99017.19;;;13.66;82.57
56400;BME280;42298;53.638;9.876;2023-10-31T07:47:16;99008.06;;;13.56;82.12
56400;BME280;42298;53.638;9.876;2023-10-31T07:49:42;99009.22;;;13.41;82.20
56400;BME280;42298;53.638;9.876;2023-10-31T07:52:09;99006.88;;;13.27;82.15
56400;BME280;42298;53.638;9.876;2023-10-31T07:54:39;99006.94;;;13.20;82.44
56400;BME280;42298;53.638;9.876;2023-10-31T07:57:09;99010.09;;;13.10;81.94
56400;BME280;42298;53.638;9.876;2023-10-31T07:59:35;99019.44;;;13.01;82.19
56400;BME280;42298;53.638;9.876;2023-10-31T08:02:01;99017.66;;;12.88;82.20
56400;BME280;42298;53.638;9.876;2023-10-31T08:04:27;99018.97;;;12.79;82.12
56400;BME280;42298;53.638;9.876;2023-10-31T08:06:57;99020.13;;;12.65;82.22
56400;BME280;42298;53.638;9.876;2023-10-31T08:09:22;99012.31;;;12.63;81.94
56400;BME280;42298;53.638;9.876;2023-10-31T08:11:48;99007.09;;;12.43;81.89
56400;BME280;42298;53.638;9.876;2023-10-31T08:14:14;99001.78;;;12.36;82.06
56400;BME280;42298;53.638;9.876;2023-10-31T08:16:41;98998.31;;;12.36;82.17
56400;BME280;42298;53.638;9.876;2023-10-31T08:19:08;99007.34;;;12.35;82.11
56400;BME280;42298;53.638;9.876;2023-10-31T08:21:38;99007.38;;;12.28;82.24
56400;BME280;42298;53.638;9.876;2023-10-31T08:24:04;99012.31;;;12.31;81.97
56400;BME280;42298;53.638;9.876;2023-10-31T08:26:31;99012.31;;;12.31;82.17
56400;BME280;42298;53.638;9.876;2023-10-31T08:28:56;99007.56;;;12.33;82.22
56400;BME280;42298;53.638;9.876;2023-10-31T08:31:22;99001.03;;;12.29;82.26
56400;BME280;42298;53.638;9.876;2023-10-31T08:33:47;99008.78;;;12.31;82.39
56400;BME280;42298;53.638;9.876;2023-10-31T08:36:12;99011.25;;;12.32;82.36
56400;BME280;42298;53.638;9.876;2023-10-31T08:38:38;99007.94;;;12.37;82.50
56400;BME280;42298;53.638;9.876;2023-10-31T08:41:03;99016.34;;;12.40;82.47
56400;BME280;42298;53.638;9.876;2023-10-31T08:43:28;99034.19;;;12.47;82.43
56400;BME280;42298;53.638;9.876;2023-10-31T08:45:54;99018.81;;;12.42;82.23
56400;BME280;42298;53.638;9.876;2023-10-31T08:48:19;99019.44;;;12.37;82.31
56400;BME280;42298;53.638;9.876;2023-10-31T08:50:45;99018.63;;;12.37;82.26
56400;BME280;42298;53.638;9.876;2023-10-31T08:53:11;99018.22;;;12.40;82.28
56400;BME280;42298;53.638;9.876;2023-10-31T08:55:36;99031.28;;;12.48;82.24
56400;BME280;42298;53.638;9.876;2023-10-31T08:58:01;99034.19;;;12.47;82.36
56400;BME280;42298;53.638;9.876;2023-10-31T09:00:27;99029.66;;;12.47;82.38
56400;BME280;42298;53.638;9.876;2023-10-31T09:02:54;99035.84;;;12.41;82.10
56400;BME280;42298;53.638;9.876;2023-10-31T09:05:19;99035.44;;;12.37;82.38
56400;BME280;42298;53.638;9.876;2023-10-31T09:07:44;99049.81;;;12.43;82.20
56400;BME280;42298;53.638;9.876;2023-10-31T09:10:11;99052.91;;;12.40;82.42
56400;BME280;42298;53.638;9.876;2023-10-31T09:12:37;99046.75;;;12.39;82.48
56400;BME280;42298;53.638;9.876;2023-10-31T09:15:02;99059.25;;;12.46;82.55
56400;BME280;42298;53.638;9.876;2023-10-31T09:17:28;99064.22;;;12.42;82.38
56400;BME280;42298;53.638;9.876;2023-10-31T09:19:55;99081.22;;;12.48;82.48
56400;BME280;42298;53.638;9.876;2023-10-31T09:22:20;99091.06;;;12.47;82.63
56400;BME280;42298;53.638;9.876;2023-10-31T09:24:46;99102.81;;;12.39;82.28
56400;BME280;42298;53.638;9.876;2023-10-31T09:27:11;99116.75;;;12.41;82.84
56400;BME280;42298;53.638;9.876;2023-10-31T09:29:36;99135.28;;;12.36;82.56
56400;BME280;42298;53.638;9.876;2023-10-31T09:32:02;99153.75;;;12.38;82.54
56400;BME280;42298;53.638;9.876;2023-10-31T09:34:28;99162.44;;;12.20;82.14
56400;BME280;42298;53.638;9.876;2023-10-31T09:36:53;99173.16;;;12.00;82.23
56400;BME280;42298;53.638;9.876;2023-10-31T09:39:19;99185.47;;;11.88;81.98
56400;BME280;42298;53.638;9.876;2023-10-31T09:41:44;99202.69;;;11.78;82.26
56400;BME280;42298;53.638;9.876;2023-10-31T09:44:09;99199.59;;;11.68;82.03
56400;BME280;42298;53.638;9.876;2023-10-31T09:46:35;99220.53;;;11.58;82.01
56400;BME280;42298;53.638;9.876;2023-10-31T09:49:00;99235.31;;;11.54;82.07
56400;BME280;42298;53.638;9.876;2023-10-31T09:51:27;99243.47;;;11.39;82.04
56400;BME280;42298;53.638;9.876;2023-10-31T09:53:54;99249.22;;;11.36;81.86
56400;BME280;42298;53.638;9.876;2023-10-31T09:56:21;99272.59;;;11.34;82.06
56400;BME280;42298;53.638;9.876;2023-10-31T09:58:48;99279.53;;;11.35;82.37
56400;BME280;42298;53.638;9.876;2023-10-31T10:01:13;99285.91;;;11.34;82.29
56400;BME280;42298;53.638;9.876;2023-10-31T10:03:40;99299.84;;;11.29;82.15
56400;BME280;42298;53.638;9.876;2023-10-31T10:06:06;99326.09;;;11.32;82.15
56400;BME280;42298;53.638;9.876;2023-10-31T10:08:31;99326.09;;;11.32;81.97
56400;BME280;42298;53.638;9.876;2023-10-31T10:10:57;99343.13;;;11.31;82.21
56400;BME280;42298;53.638;9.876;2023-10-31T10:13:23;99342.06;;;11.32;82.06
56400;BME280;42298;53.638;9.876;2023-10-31T10:15:50;99356.81;;;11.28;81.78
56400;BME280;42298;53.638;9.876;2023-10-31T10:20:59;99377.31;;;11.28;82.01
56400;BME280;42298;53.638;9.876;2023-10-31T10:23:26;99386.59;;;11.38;82.09
56400;BME280;42298;53.638;9.876;2023-10-31T10:25:52;99382.69;;;11.34;82.20
56400;BME280;42298;53.638;9.876;2023-10-31T10:28:18;99401.16;;;11.36;81.88
56400;BME280;42298;53.638;9.876;2023-10-31T10:30:49;99411.38;;;11.32;81.73
56400;BME280;42298;53.638;9.876;2023-10-31T10:33:15;99414.84;;;11.33;82.17
56400;BME280;42298;53.638;9.876;2023-10-31T10:35:41;99425.34;;;11.34;81.80
56400;BME280;42298;53.638;9.876;2023-10-31T10:38:15;99429.66;;;11.42;81.58
56400;BME280;42298;53.638;9.876;2023-10-31T10:40:44;99439.69;;;11.40;81.67
56400;BME280;42298;53.638;9.876;2023-10-31T10:43:22;99442.59;;;11.38;81.53
56400;BME280;42298;53.638;9.876;2023-10-31T10:45:58;99446.41;;;11.23;82.12
56400;BME280;42298;53.638;9.876;2023-10-31T10:48:25;99456.84;;;11.24;81.61
56400;BME280;42298;53.638;9.876;2023-10-31T10:51:00;99454.81;;;11.26;81.81
56400;BME280;42298;53.638;9.876;2023-10-31T10:53:35;99459.72;;;11.23;81.73
56400;BME280;42298;53.638;9.876;2023-10-31T10:56:13;99468.38;;;11.31;81.67
56400;BME280;42298;53.638;9.876;2023-10-31T10:58:51;99474.69;;;11.24;81.53
56400;BME280;42298;53.638;9.876;2023-10-31T11:01:17;99480.25;;;11.29;81.72
56400;BME280;42298;53.638;9.876;2023-10-31T11:03:45;99491.78;;;11.36;81.59
56400;BME280;42298;53.638;9.876;2023-10-31T11:06:10;99488.50;;;11.34;81.79
56400;BME280;42298;53.638;9.876;2023-10-31T11:08:36;99492.38;;;11.31;81.40
56400;BME280;42298;53.638;9.876;2023-10-31T11:11:02;99505.69;;;11.31;81.86
56400;BME280;42298;53.638;9.876;2023-10-31T11:13:29;99501.19;;;11.32;81.87
56400;BME280;42298;53.638;9.876;2023-10-31T11:15:57;99502.00;;;11.32;81.41
56400;BME280;42298;53.638;9.876;2023-10-31T11:18:25;99515.16;;;11.34;81.61
56400;BME280;42298;53.638;9.876;2023-10-31T11:20:51;99519.31;;;11.43;81.79
56400;BME280;42298;53.638;9.876;2023-10-31T11:23:16;99525.63;;;11.42;81.40
56400;BME280;42298;53.638;9.876;2023-10-31T11:25:43;99518.03;;;11.39;81.69
56400;BME280;42298;53.638;9.876;2023-10-31T11:28:14;99531.84;;;11.49;81.61
56400;BME280;42298;53.638;9.876;2023-10-31T11:30:42;99543.97;;;11.52;81.58
56400;BME280;42298;53.638;9.876;2023-10-31T11:33:15;99544.59;;;11.54;81.67
56400;BME280;42298;53.638;9.876;2023-10-31T11:35:40;99554.03;;;11.56;81.47
56400;BME280;42298;53.638;9.876;2023-10-31T11:38:08;99546.63;;;11.52;81.19
56400;BME280;42298;53.638;9.876;2023-10-31T11:41:00;99563.31;;;11.60;81.36
56400;BME280;42298;53.638;9.876;2023-10-31T11:43:35;99567.59;;;11.62;81.25
56400;BME280;42298;53.638;9.876;2023-10-31T11:46:01;99570.09;;;11.63;81.22
56400;BME280;42298;53.638;9.876;2023-10-31T11:48:45;99575.22;;;11.65;80.94
56400;BME280;42298;53.638;9.876;2023-10-31T11:51:12;99584.41;;;11.62;80.96
56400;BME280;42298;53.638;9.876;2023-10-31T11:53:39;99578.03;;;11.56;81.05
56400;BME280;42298;53.638;9.876;2023-10-31T11:56:04;99580.53;;;11.58;81.11
56400;BME280;42298;53.638;9.876;2023-10-31T11:58:30;99580.00;;;11.76;80.86
56400;BME280;42298;53.638;9.876;2023-10-31T12:01:03;99581.88;;;11.82;81.11
56400;BME280;42298;53.638;9.876;2023-10-31T12:03:43;99590.31;;;11.86;80.76
56400;BME280;42298;53.638;9.876;2023-10-31T12:06:14;99602.84;;;11.85;80.74
56400;BME280;42298;53.638;9.876;2023-10-31T12:08:42;99598.03;;;12.02;81.04
56400;BME280;42298;53.638;9.876;2023-10-31T12:11:10;99601.13;;;12.06;80.86
56400;BME280;42298;53.638;9.876;2023-10-31T12:13:37;99592.91;;;12.00;80.51
56400;BME280;42298;53.638;9.876;2023-10-31T12:16:07;99603.78;;;12.06;80.90
56400;BME280;42298;53.638;9.876;2023-10-31T12:18:36;99611.03;;;12.12;80.66
56400;BME280;42298;53.638;9.876;2023-10-31T12:21:02;99614.94;;;12.16;80.82
56400;BME280;42298;53.638;9.876;2023-10-31T12:23:28;99609.63;;;12.23;80.88
56400;BME280;42298;53.638;9.876;2023-10-31T12:25:54;99625.91;;;12.34;80.75
56400;BME280;42298;53.638;9.876;2023-10-31T12:28:20;99635.56;;;12.35;80.64
56400;BME280;42298;53.638;9.876;2023-10-31T12:30:51;99643.78;;;12.34;80.35
56400;BME280;42298;53.638;9.876;2023-10-31T12:33:20;99642.53;;;12.36;79.53
56400;BME280;42298;53.638;9.876;2023-10-31T12:35:46;99632.47;;;12.32;80.27
56400;BME280;42298;53.638;9.876;2023-10-31T12:38:12;99645.22;;;12.36;79.72
56400;BME280;42298;53.638;9.876;2023-10-31T12:40:39;99643.75;;;12.27;78.98
56400;BME280;42298;53.638;9.876;2023-10-31T12:43:05;99653.63;;;12.33;79.35
56400;BME280;42298;53.638;9.876;2023-10-31T12:45:31;99645.38;;;12.28;79.36
56400;BME280;42298;53.638;9.876;2023-10-31T12:48:00;99660.38;;;12.29;78.98
56400;BME280;42298;53.638;9.876;2023-10-31T12:50:27;99663.06;;;12.29;78.96
56400;BME280;42298;53.638;9.876;2023-10-31T12:52:54;99662.44;;;12.27;79.11
56400;BME280;42298;53.638;9.876;2023-10-31T12:55:21;99671.44;;;12.26;78.85
56400;BME280;42298;53.638;9.876;2023-10-31T12:57:47;99663.22;;;12.21;78.87
56400;BME280;42298;53.638;9.876;2023-10-31T13:00:14;99670.63;;;12.26;78.75
56400;BME280;42298;53.638;9.876;2023-10-31T13:02:40;99676.78;;;12.26;78.66